Time;durP1;ratioP1;P1;durP2;ratioP2;P2;SDS_P1;SDS_P2;PMS_P1;PMS_P2;Temp;Humidity;BMP_temperature;BMP_pressure;BME280_temperature;BME280_humidity;BME280_pressure;Samples;Min_cycle;Max_cycle;Signal;HPM_P1;HPM_P2
2021/12/06 00:01:13;;;;;;;10.40;6.03;;;;;;;;;;5008909;28;20443;-73
2021/12/06 00:03:45;;;;;;;8.23;6.23;;;;;;;;;;5006735;28;20695;-72
2021/12/06 00:06:11;;;;;;;11.80;6.07;;;;;;;;;;5009854;28;20496;-72
2021/12/06 00:08:38;;;;;;;8.37;5.77;;;;;;;;;;5010366;28;20852;-73
2021/12/06 00:11:09;;;;;;;6.60;6.00;;;;;;;;;;5009258;28;20447;-73
2021/12/06 00:13:39;;;;;;;8.33;5.53;;;;;;;;;;5009260;28;20972;-73
2021/12/06 00:16:09;;;;;;;4.07;3.80;;;;;;;;;;5009071;28;20428;-72
2021/12/06 00:18:35;;;;;;;6.10;5.00;;;;;;;;;;5010726;28;20483;-72
2021/12/06 00:21:01;;;;;;;7.57;4.97;;;;;;;;;;5010042;28;20431;-73
2021/12/06 00:23:27;;;;;;;4.47;4.17;;;;;;;;;;5007105;28;20558;-73
2021/12/06 00:25:54;;;;;;;6.87;4.43;;;;;;;;;;5009092;28;20494;-73
2021/12/06 00:28:20;;;;;;;6.07;4.27;;;;;;;;;;5009666;28;20942;-73
2021/12/06 00:30:46;;;;;;;5.50;3.67;;;;;;;;;;5011086;28;20432;-73
2021/12/06 00:33:12;;;;;;;4.03;3.80;;;;;;;;;;5010327;28;20428;-73
2021/12/06 00:35:38;;;;;;;4.43;4.10;;;;;;;;;;5007064;28;20972;-72
2021/12/06 00:38:04;;;;;;;4.27;3.97;;;;;;;;;;5007162;28;20590;-73
2021/12/06 00:40:32;;;;;;;5.00;4.43;;;;;;;;;;5008629;28;20625;-73
2021/12/06 00:42:57;;;;;;;4.20;3.90;;;;;;;;;;5003319;28;20443;-72
2021/12/06 00:45:24;;;;;;;4.47;4.20;;;;;;;;;;5040394;28;20510;-73
2021/12/06 00:47:50;;;;;;;3.93;3.30;;;;;;;;;;5009400;28;20451;-73
2021/12/06 00:50:17;;;;;;;3.20;3.00;;;;;;;;;;5041074;28;20547;-73
2021/12/06 00:52:43;;;;;;;4.17;3.53;;;;;;;;;;5008120;28;20432;-73
2021/12/06 00:55:09;;;;;;;4.23;3.23;;;;;;;;;;5009268;28;20444;-73
2021/12/06 00:57:36;;;;;;;2.70;2.60;;;;;;;;;;5010826;28;20429;-73
2021/12/06 01:00:03;;;;;;;3.10;3.00;;;;;;;;;;5009306;28;20933;-73
2021/12/06 01:02:29;;;;;;;2.70;2.60;;;;;;;;;;5007977;28;20462;-73
2021/12/06 01:04:55;;;;;;;2.83;2.10;;;;;;;;;;5042734;28;20492;-73
2021/12/06 01:07:21;;;;;;;2.00;1.90;;;;;;;;;;5008286;28;20439;-73
2021/12/06 01:09:47;;;;;;;3.60;2.40;;;;;;;;;;5010184;28;20443;-72
2021/12/06 01:12:14;;;;;;;1.83;1.83;;;;;;;;;;5010764;28;20428;-72
2021/12/06 01:14:40;;;;;;;3.33;2.00;;;;;;;;;;5007681;28;20451;-73
2021/12/06 01:17:07;;;;;;;1.97;1.87;;;;;;;;;;5011443;28;20801;-72
2021/12/06 01:19:33;;;;;;;2.87;2.60;;;;;;;;;;5009381;28;20436;-72
2021/12/06 01:24:58;;;;;;;2.00;2.00;;;;;;;;;;5008273;28;20479;-72
2021/12/06 01:40:18;;;;;;;2.50;2.40;;;;;;;;;;5009802;28;20770;-73
2021/12/06 01:42:44;;;;;;;3.13;2.87;;;;;;;;;;5042124;28;20494;-73
2021/12/06 01:45:10;;;;;;;2.17;2.07;;;;;;;;;;5006493;28;20468;-73
2021/12/06 01:47:37;;;;;;;2.73;2.63;;;;;;;;;;5007174;28;20472;-73
2021/12/06 01:50:08;;;;;;;4.00;3.00;;;;;;;;;;5042389;28;20731;-73
2021/12/06 01:52:36;;;;;;;3.13;2.60;;;;;;;;;;5008477;28;20509;-72
2021/12/06 01:55:02;;;;;;;2.60;2.50;;;;;;;;;;5006760;28;20829;-73
2021/12/06 01:57:29;;;;;;;1.90;1.80;;;;;;;;;;5010489;28;20956;-73
2021/12/06 01:59:55;;;;;;;2.43;2.33;;;;;;;;;;5011029;28;20440;-73
2021/12/06 02:02:23;;;;;;;2.10;2.07;;;;;;;;;;5009731;28;20440;-73
2021/12/06 02:04:49;;;;;;;2.00;1.87;;;;;;;;;;5009980;28;20573;-73
2021/12/06 02:07:17;;;;;;;2.40;2.37;;;;;;;;;;5005872;28;20452;-73
2021/12/06 02:09:44;;;;;;;1.93;1.93;;;;;;;;;;5007624;28;20439;-73
2021/12/06 02:12:11;;;;;;;1.60;1.60;;;;;;;;;;5006791;28;20511;-73
2021/12/06 02:14:59;;;;;;;2.70;1.93;;;;;;;;;;5010672;28;20423;-73
2021/12/06 02:17:31;;;;;;;2.67;2.67;;;;;;;;;;5008142;28;20959;-73
2021/12/06 02:20:03;;;;;;;2.30;2.20;;;;;;;;;;5011020;28;20428;-73
2021/12/06 02:22:30;;;;;;;2.27;2.17;;;;;;;;;;5008713;28;20894;-73
2021/12/06 02:24:56;;;;;;;1.80;1.80;;;;;;;;;;5008479;28;20508;-73
2021/12/06 02:27:23;;;;;;;2.30;2.20;;;;;;;;;;5009020;28;20523;-73
2021/12/06 02:29:50;;;;;;;2.77;2.03;;;;;;;;;;5010319;28;21029;-72
2021/12/06 02:32:16;;;;;;;3.40;3.20;;;;;;;;;;5008188;28;20439;-73
2021/12/06 02:34:47;;;;;;;2.30;2.20;;;;;;;;;;5009467;28;20441;-72
2021/12/06 02:37:14;;;;;;;2.17;2.10;;;;;;;;;;5005561;28;20475;-73
2021/12/06 02:39:40;;;;;;;2.00;1.90;;;;;;;;;;5008734;28;20575;-72
2021/12/06 02:42:07;;;;;;;2.20;2.10;;;;;;;;;;5009133;28;20448;-72
2021/12/06 02:44:34;;;;;;;2.00;1.90;;;;;;;;;;5007986;28;20515;-73
2021/12/06 02:47:00;;;;;;;1.80;1.80;;;;;;;;;;5006339;28;20495;-73
2021/12/06 02:49:26;;;;;;;1.37;1.37;;;;;;;;;;5008310;28;20431;-72
2021/12/06 02:51:52;;;;;;;2.10;2.00;;;;;;;;;;5007234;28;20440;-73
2021/12/06 02:54:21;;;;;;;1.63;1.63;;;;;;;;;;5008355;28;20420;-73
2021/12/06 02:57:18;;;;;;;1.63;1.63;;;;;;;;;;5006717;28;20451;-73
2021/12/06 02:59:44;;;;;;;1.40;1.40;;;;;;;;;;5009892;28;20435;-72
2021/12/06 03:02:11;;;;;;;1.07;1.07;;;;;;;;;;5006448;28;20444;-73
2021/12/06 03:04:38;;;;;;;1.70;1.60;;;;;;;;;;5039502;28;20476;-73
2021/12/06 03:07:05;;;;;;;1.47;1.40;;;;;;;;;;5036343;28;20979;-73
2021/12/06 03:09:35;;;;;;;1.50;1.50;;;;;;;;;;5008743;28;20498;-72
2021/12/06 03:12:02;;;;;;;1.40;1.37;;;;;;;;;;5009249;28;20983;-73
2021/12/06 03:14:30;;;;;;;1.87;1.50;;;;;;;;;;5008929;28;20659;-73
2021/12/06 03:16:57;;;;;;;1.30;1.20;;;;;;;;;;5007311;28;20455;-73
2021/12/06 03:19:24;;;;;;;1.47;1.27;;;;;;;;;;5009121;28;20439;-72
2021/12/06 03:21:51;;;;;;;1.60;1.50;;;;;;;;;;5006816;28;20436;-72
2021/12/06 03:24:17;;;;;;;1.10;1.10;;;;;;;;;;5008831;28;20921;-72
2021/12/06 03:26:43;;;;;;;1.70;1.70;;;;;;;;;;5004880;28;20443;-73
2021/12/06 03:29:10;;;;;;;1.87;1.77;;;;;;;;;;5009773;28;20436;-73
2021/12/06 03:31:36;;;;;;;1.20;1.20;;;;;;;;;;5038992;28;20461;-73
2021/12/06 03:34:02;;;;;;;3.37;1.37;;;;;;;;;;5008952;28;20527;-73
2021/12/06 03:36:29;;;;;;;1.20;1.20;;;;;;;;;;5006530;28;20450;-73
2021/12/06 03:38:56;;;;;;;1.67;1.57;;;;;;;;;;5009228;28;20436;-72
2021/12/06 03:41:25;;;;;;;1.87;1.77;;;;;;;;;;5008789;28;20499;-72
2021/12/06 03:43:51;;;;;;;1.90;1.80;;;;;;;;;;5009012;28;20509;-73
2021/12/06 03:46:18;;;;;;;1.60;1.60;;;;;;;;;;5006431;28;20242;-72
2021/12/06 03:48:46;;;;;;;1.27;1.27;;;;;;;;;;5009198;28;20551;-72
2021/12/06 03:51:12;;;;;;;2.67;2.57;;;;;;;;;;5008470;28;20817;-73
2021/12/06 03:53:38;;;;;;;2.63;2.40;;;;;;;;;;5009627;28;20436;-73
2021/12/06 03:56:04;;;;;;;2.20;2.10;;;;;;;;;;5007567;28;20785;-73
2021/12/06 03:58:30;;;;;;;2.73;2.10;;;;;;;;;;5006766;28;20447;-73
2021/12/06 04:00:56;;;;;;;2.70;2.50;;;;;;;;;;5009353;28;20424;-72
2021/12/06 04:03:24;;;;;;;2.80;2.60;;;;;;;;;;5007909;28;20471;-73
2021/12/06 04:05:50;;;;;;;1.30;1.30;;;;;;;;;;5003090;28;20499;-72
2021/12/06 04:08:16;;;;;;;1.60;1.60;;;;;;;;;;5007128;28;20436;-73
2021/12/06 04:10:42;;;;;;;1.60;1.50;;;;;;;;;;5009044;28;20506;-73
2021/12/06 04:13:09;;;;;;;1.40;1.40;;;;;;;;;;5006542;28;20482;-72
2021/12/06 04:15:36;;;;;;;1.43;1.43;;;;;;;;;;5005488;28;20452;-73
2021/12/06 04:18:02;;;;;;;1.97;1.87;;;;;;;;;;4998410;28;20480;-73
2021/12/06 04:20:28;;;;;;;1.03;1.03;;;;;;;;;;5008423;28;20428;-72
2021/12/06 04:22:54;;;;;;;1.90;1.80;;;;;;;;;;5007433;28;20521;-73
2021/12/06 04:25:21;;;;;;;1.93;1.93;;;;;;;;;;5000417;28;20983;-73
2021/12/06 04:27:53;;;;;;;2.10;1.40;;;;;;;;;;5040332;28;21270;-73
2021/12/06 04:30:19;;;;;;;1.40;1.40;;;;;;;;;;5006193;28;20451;-72
2021/12/06 04:32:45;;;;;;;2.83;2.23;;;;;;;;;;5001470;28;20442;-72
2021/12/06 04:35:11;;;;;;;1.57;1.57;;;;;;;;;;5007011;28;20578;-73
2021/12/06 04:37:37;;;;;;;2.10;1.90;;;;;;;;;;5011247;28;20424;-72
2021/12/06 04:40:04;;;;;;;2.00;1.90;;;;;;;;;;5012101;28;20451;-73
2021/12/06 04:42:30;;;;;;;1.63;1.63;;;;;;;;;;5001976;28;20444;-72
2021/12/06 04:44:56;;;;;;;1.93;1.40;;;;;;;;;;5042700;28;20884;-73
2021/12/06 04:47:22;;;;;;;1.60;1.50;;;;;;;;;;5011847;28;20502;-73
2021/12/06 04:49:48;;;;;;;1.60;1.50;;;;;;;;;;5044515;28;20486;-73
2021/12/06 04:52:15;;;;;;;1.63;1.53;;;;;;;;;;5003323;28;20539;-72
2021/12/06 04:54:43;;;;;;;1.90;1.80;;;;;;;;;;5012357;28;20455;-73
2021/12/06 04:57:13;;;;;;;1.83;1.73;;;;;;;;;;5012388;28;20912;-72
2021/12/06 04:59:40;;;;;;;9.67;1.70;;;;;;;;;;5004024;28;20436;-72
2021/12/06 05:02:18;;;;;;;2.20;1.93;;;;;;;;;;5004208;28;20459;-72
2021/12/06 05:04:47;;;;;;;1.50;1.50;;;;;;;;;;5008032;28;20482;-73
2021/12/06 05:07:16;;;;;;;1.57;1.57;;;;;;;;;;5009852;28;20477;-73
2021/12/06 05:09:43;;;;;;;1.77;1.77;;;;;;;;;;5009726;28;20424;-73
2021/12/06 05:12:11;;;;;;;1.90;1.80;;;;;;;;;;5005505;28;20971;-73
2021/12/06 05:14:37;;;;;;;1.80;1.70;;;;;;;;;;5007279;28;20499;-73
2021/12/06 05:17:03;;;;;;;1.50;1.50;;;;;;;;;;5011290;28;20436;-72
2021/12/06 05:19:29;;;;;;;6.10;1.50;;;;;;;;;;5011734;28;20562;-72
2021/12/06 05:21:55;;;;;;;1.50;1.50;;;;;;;;;;5008466;28;20467;-73
2021/12/06 05:24:21;;;;;;;2.00;1.90;;;;;;;;;;5001492;28;20444;-73
2021/12/06 05:26:47;;;;;;;1.23;1.20;;;;;;;;;;5010176;28;20448;-73
2021/12/06 05:29:16;;;;;;;1.10;1.10;;;;;;;;;;5011218;28;20439;-72
2021/12/06 05:31:42;;;;;;;1.20;1.20;;;;;;;;;;5009554;28;20432;-73
2021/12/06 05:34:14;;;;;;;1.87;1.80;;;;;;;;;;5004999;28;20440;-72
2021/12/06 05:36:41;;;;;;;2.30;2.20;;;;;;;;;;5003146;28;20458;-72
2021/12/06 05:39:07;;;;;;;1.73;1.73;;;;;;;;;;5011307;28;20499;-73
2021/12/06 05:41:36;;;;;;;2.40;2.30;;;;;;;;;;5010413;28;20438;-73
2021/12/06 05:44:03;;;;;;;1.70;1.70;;;;;;;;;;5007866;28;20467;-72
2021/12/06 05:46:28;;;;;;;2.23;2.13;;;;;;;;;;5003884;28;20485;-73
2021/12/06 05:48:54;;;;;;;2.27;1.90;;;;;;;;;;5010591;28;20443;-73
2021/12/06 05:51:20;;;;;;;1.20;1.20;;;;;;;;;;5010232;28;20436;-72
2021/12/06 05:53:46;;;;;;;1.60;1.33;;;;;;;;;;5011176;28;20444;-73
2021/12/06 05:56:12;;;;;;;1.27;1.27;;;;;;;;;;4998167;28;20444;-73
2021/12/06 05:58:39;;;;;;;1.17;1.17;;;;;;;;;;5003341;28;20455;-72
2021/12/06 06:01:05;;;;;;;1.60;1.50;;;;;;;;;;5010689;28;20878;-73
2021/12/06 06:03:31;;;;;;;2.17;1.30;;;;;;;;;;5009590;28;20436;-73
2021/12/06 06:05:58;;;;;;;1.30;1.30;;;;;;;;;;5000526;28;20480;-72
2021/12/06 06:08:25;;;;;;;1.13;1.13;;;;;;;;;;5039753;28;20443;-73
2021/12/06 06:10:51;;;;;;;2.10;2.00;;;;;;;;;;5007951;28;20452;-72
2021/12/06 06:13:17;;;;;;;1.20;1.20;;;;;;;;;;5002419;28;20499;-73
2021/12/06 06:15:44;;;;;;;1.10;1.10;;;;;;;;;;5035189;28;20456;-72
2021/12/06 06:18:10;;;;;;;2.30;1.20;;;;;;;;;;4999506;28;20452;-73
2021/12/06 06:20:39;;;;;;;1.30;1.30;;;;;;;;;;5010499;28;20486;-73
2021/12/06 06:23:05;;;;;;;2.97;2.43;;;;;;;;;;5009720;28;20428;-73
2021/12/06 06:25:32;;;;;;;1.50;1.40;;;;;;;;;;5003999;28;20578;-73
2021/12/06 06:27:58;;;;;;;1.67;1.57;;;;;;;;;;5003626;28;20475;-73
2021/12/06 06:30:24;;;;;;;1.20;1.20;;;;;;;;;;5004318;28;20467;-72
2021/12/06 06:32:50;;;;;;;1.70;1.70;;;;;;;;;;5003865;28;20444;-73
2021/12/06 06:35:17;;;;;;;3.60;1.67;;;;;;;;;;5002513;28;20526;-73
2021/12/06 06:37:43;;;;;;;8.90;2.77;;;;;;;;;;5004695;28;20862;-73
2021/12/06 06:40:10;;;;;;;1.13;1.03;;;;;;;;;;5005563;28;20471;-73
2021/12/06 06:42:36;;;;;;;1.90;1.80;;;;;;;;;;5000580;28;20428;-73
2021/12/06 06:45:04;;;;;;;3.37;1.83;;;;;;;;;;5008571;28;20850;-73
2021/12/06 06:47:30;;;;;;;3.87;3.50;;;;;;;;;;5008521;28;20897;-73
2021/12/06 06:49:56;;;;;;;4.10;3.80;;;;;;;;;;5040628;28;20456;-73
2021/12/06 06:52:22;;;;;;;6.37;3.97;;;;;;;;;;5007828;28;20535;-73
2021/12/06 06:54:48;;;;;;;3.40;3.10;;;;;;;;;;5006622;28;20803;-73
2021/12/06 06:57:16;;;;;;;3.13;2.60;;;;;;;;;;4993004;28;20544;-73
2021/12/06 06:59:42;;;;;;;3.27;3.07;;;;;;;;;;5008695;28;20487;-73
2021/12/06 07:02:08;;;;;;;3.47;2.37;;;;;;;;;;4998694;28;20444;-73
2021/12/06 07:04:35;;;;;;;2.43;2.33;;;;;;;;;;5006068;28;20440;-73
2021/12/06 07:07:00;;;;;;;4.87;1.80;;;;;;;;;;5007416;28;20546;-73
2021/12/06 07:09:26;;;;;;;3.40;1.47;;;;;;;;;;5007286;28;20527;-73
2021/12/06 07:11:53;;;;;;;2.20;2.20;;;;;;;;;;5009212;28;21082;-73
2021/12/06 07:14:19;;;;;;;2.20;2.00;;;;;;;;;;5008539;28;20420;-74
2021/12/06 07:16:46;;;;;;;3.63;3.53;;;;;;;;;;5001443;28;20456;-73
2021/12/06 07:19:12;;;;;;;6.33;4.20;;;;;;;;;;5006581;28;20475;-72
2021/12/06 07:21:38;;;;;;;3.63;3.40;;;;;;;;;;5006196;28;20444;-73
2021/12/06 07:24:05;;;;;;;5.13;3.53;;;;;;;;;;5005910;28;20807;-73
2021/12/06 07:26:31;;;;;;;5.20;4.80;;;;;;;;;;5005552;28;20499;-73
2021/12/06 07:28:57;;;;;;;8.90;4.20;;;;;;;;;;5036356;28;20475;-73
2021/12/06 07:31:24;;;;;;;4.03;3.83;;;;;;;;;;5006680;28;20451;-73
2021/12/06 07:33:50;;;;;;;4.43;3.27;;;;;;;;;;5007579;28;20424;-73
2021/12/06 07:36:17;;;;;;;5.13;4.83;;;;;;;;;;5003375;28;20449;-73
2021/12/06 07:38:43;;;;;;;3.90;3.80;;;;;;;;;;5007072;28;20998;-77
2021/12/06 07:41:13;;;;;;;2.90;2.80;;;;;;;;;;5008390;28;20537;-74
2021/12/06 07:43:39;;;;;;;7.73;4.70;;;;;;;;;;5036948;28;20447;-73
2021/12/06 07:46:06;;;;;;;4.63;4.10;;;;;;;;;;5007905;28;20500;-73
2021/12/06 07:48:32;;;;;;;4.43;3.13;;;;;;;;;;5006506;28;21034;-72
2021/12/06 07:50:59;;;;;;;5.03;3.10;;;;;;;;;;5006311;28;20837;-73
2021/12/06 07:53:26;;;;;;;3.83;2.70;;;;;;;;;;4995187;28;20545;-72
2021/12/06 07:55:52;;;;;;;3.80;3.50;;;;;;;;;;4999241;28;20866;-73
2021/12/06 07:58:18;;;;;;;8.73;2.70;;;;;;;;;;5004258;28;20428;-73
2021/12/06 08:00:45;;;;;;;2.93;2.30;;;;;;;;;;5003466;28;20442;-72
2021/12/06 08:03:12;;;;;;;2.43;1.73;;;;;;;;;;5007042;28;21036;-72
2021/12/06 08:05:39;;;;;;;1.90;1.90;;;;;;;;;;5036430;28;20488;-72
2021/12/06 08:08:05;;;;;;;6.40;4.60;;;;;;;;;;5008496;28;20428;-71
2021/12/06 08:10:32;;;;;;;2.60;2.50;;;;;;;;;;5000716;28;20439;-73
2021/12/06 08:12:58;;;;;;;1.47;1.47;;;;;;;;;;5008089;28;20928;-73
2021/12/06 08:15:24;;;;;;;2.63;2.43;;;;;;;;;;5007791;28;20432;-73
2021/12/06 08:17:50;;;;;;;2.37;2.27;;;;;;;;;;5009976;28;20498;-72
2021/12/06 08:20:17;;;;;;;14.63;2.10;;;;;;;;;;5006652;28;20519;-73
2021/12/06 08:22:43;;;;;;;6.50;3.57;;;;;;;;;;5010420;28;20521;-72
2021/12/06 08:25:11;;;;;;;12.07;3.37;;;;;;;;;;5039216;28;20522;-73
2021/12/06 08:27:37;;;;;;;3.93;3.23;;;;;;;;;;5011705;28;20430;-74
2021/12/06 08:30:05;;;;;;;4.23;3.90;;;;;;;;;;5007860;28;20436;-73
2021/12/06 08:32:31;;;;;;;4.03;3.50;;;;;;;;;;5006602;28;20550;-72
2021/12/06 08:34:57;;;;;;;3.37;3.13;;;;;;;;;;5005431;28;20451;-71
2021/12/06 08:37:26;;;;;;;3.53;3.33;;;;;;;;;;5009580;28;20436;-72
2021/12/06 08:39:51;;;;;;;3.90;2.50;;;;;;;;;;5008441;28;20931;-73
2021/12/06 08:42:17;;;;;;;8.63;5.00;;;;;;;;;;5011350;28;20424;-73
2021/12/06 08:44:43;;;;;;;17.63;9.70;;;;;;;;;;5009386;28;20444;-72
2021/12/06 08:47:09;;;;;;;20.93;4.30;;;;;;;;;;5010201;28;21038;-72
2021/12/06 08:49:36;;;;;;;11.00;4.27;;;;;;;;;;5009020;28;21470;-72
2021/12/06 08:52:03;;;;;;;10.03;3.93;;;;;;;;;;5043345;28;20948;-72
2021/12/06 08:54:29;;;;;;;6.73;3.77;;;;;;;;;;5006486;28;20429;-73
2021/12/06 08:56:59;;;;;;;2.23;2.13;;;;;;;;;;5002073;28;20522;-73
2021/12/06 08:59:25;;;;;;;2.93;2.83;;;;;;;;;;5007891;28;20645;-72
2021/12/06 09:01:54;;;;;;;2.17;2.07;;;;;;;;;;5041122;28;20494;-73
2021/12/06 09:04:20;;;;;;;1.97;1.87;;;;;;;;;;5007441;28;20956;-70
2021/12/06 09:06:49;;;;;;;6.50;2.40;;;;;;;;;;5009645;28;20446;-73
2021/12/06 09:09:15;;;;;;;4.13;2.20;;;;;;;;;;5008148;28;20189;-73
2021/12/06 09:11:42;;;;;;;2.70;2.50;;;;;;;;;;5010735;28;20432;-73
2021/12/06 09:14:09;;;;;;;5.20;2.87;;;;;;;;;;5008062;28;20989;-73
2021/12/06 09:16:36;;;;;;;2.60;2.50;;;;;;;;;;5040545;28;20440;-73
2021/12/06 09:19:03;;;;;;;2.43;2.23;;;;;;;;;;5008362;28;20435;-72
2021/12/06 09:21:29;;;;;;;3.03;2.83;;;;;;;;;;5038003;28;20440;-73
2021/12/06 09:23:58;;;;;;;2.60;2.50;;;;;;;;;;5007199;28;20436;-73
2021/12/06 09:26:24;;;;;;;2.90;2.80;;;;;;;;;;5008595;28;20567;-72
2021/12/06 09:28:51;;;;;;;2.60;2.50;;;;;;;;;;5006287;28;20443;-72
2021/12/06 09:31:19;;;;;;;3.37;3.27;;;;;;;;;;5008611;28;20675;-71
2021/12/06 09:33:45;;;;;;;2.80;2.70;;;;;;;;;;5008079;28;20439;-70
2021/12/06 09:36:13;;;;;;;3.73;3.53;;;;;;;;;;5007956;28;20447;-67
2021/12/06 09:38:40;;;;;;;3.77;3.60;;;;;;;;;;5007061;28;20796;-74
2021/12/06 09:41:11;;;;;;;16.23;4.03;;;;;;;;;;5009987;28;20956;-72
2021/12/06 09:43:39;;;;;;;3.70;3.53;;;;;;;;;;5007445;28;20929;-72
2021/12/06 09:46:06;;;;;;;4.73;4.53;;;;;;;;;;5008296;28;20496;-73
2021/12/06 09:48:32;;;;;;;7.33;5.80;;;;;;;;;;5006634;28;20494;-70
2021/12/06 09:51:01;;;;;;;4.90;4.47;;;;;;;;;;5006737;28;20454;-75
2021/12/06 09:53:29;;;;;;;4.80;4.40;;;;;;;;;;5036177;28;20933;-73
2021/12/06 09:55:56;;;;;;;4.17;3.87;;;;;;;;;;5007409;28;20464;-73
2021/12/06 09:58:22;;;;;;;3.87;3.57;;;;;;;;;;5006238;28;20436;-73
2021/12/06 10:01:08;;;;;;;14.23;3.70;;;;;;;;;;5007745;28;20439;-70
2021/12/06 10:03:36;;;;;;;4.40;3.93;;;;;;;;;;5004103;28;20936;-72
2021/12/06 10:06:04;;;;;;;5.70;4.43;;;;;;;;;;5009879;28;20487;-73
2021/12/06 10:08:31;;;;;;;7.00;4.70;;;;;;;;;;5007585;28;20861;-73
2021/12/06 10:10:57;;;;;;;3.83;3.73;;;;;;;;;;5041300;28;20428;-73
2021/12/06 10:13:23;;;;;;;4.93;4.60;;;;;;;;;;5001318;28;20440;-73
2021/12/06 10:15:51;;;;;;;5.40;5.10;;;;;;;;;;5008642;28;20428;-73
2021/12/06 10:18:18;;;;;;;4.13;3.93;;;;;;;;;;5007240;28;21021;-73
2021/12/06 10:20:44;;;;;;;4.27;4.07;;;;;;;;;;5009288;28;20439;-73
2021/12/06 10:23:11;;;;;;;5.47;5.17;;;;;;;;;;5005195;28;20437;-73
2021/12/06 10:25:39;;;;;;;8.60;4.30;;;;;;;;;;5007871;28;20518;-72
2021/12/06 10:28:06;;;;;;;4.33;4.00;;;;;;;;;;5006000;28;20479;-73
2021/12/06 10:30:38;;;;;;;3.77;3.67;;;;;;;;;;5009422;28;20439;-73
2021/12/06 10:33:06;;;;;;;4.97;4.53;;;;;;;;;;5037816;28;20866;-72
2021/12/06 10:35:32;;;;;;;5.20;4.73;;;;;;;;;;5039731;28;20845;-72
2021/12/06 10:38:00;;;;;;;5.07;4.23;;;;;;;;;;5007399;28;20469;-73
2021/12/06 10:40:35;;;;;;;4.00;3.80;;;;;;;;;;5008113;28;20440;-73
2021/12/06 10:43:03;;;;;;;25.63;10.30;;;;;;;;;;5005535;28;20971;-73
2021/12/06 10:45:32;;;;;;;11.27;5.43;;;;;;;;;;5006957;28;20491;-73
2021/12/06 10:48:12;;;;;;;4.63;4.33;;;;;;;;;;5032765;28;21014;-72
2021/12/06 10:50:40;;;;;;;4.97;4.57;;;;;;;;;;5034667;28;20436;-73
2021/12/06 10:53:06;;;;;;;10.83;5.03;;;;;;;;;;5006247;28;20420;-73
2021/12/06 10:55:34;;;;;;;5.80;5.30;;;;;;;;;;5008183;28;20515;-73
2021/12/06 10:58:01;;;;;;;10.80;5.80;;;;;;;;;;5006367;28;20428;-73
2021/12/06 11:00:29;;;;;;;6.20;5.67;;;;;;;;;;5008804;28;20916;-73
2021/12/06 11:02:55;;;;;;;7.90;5.90;;;;;;;;;;5005671;28;20420;-73
2021/12/06 11:05:22;;;;;;;8.53;6.50;;;;;;;;;;5036910;28;20531;-73
2021/12/06 11:07:56;;;;;;;6.53;5.93;;;;;;;;;;5006540;28;20440;-73
2021/12/06 11:10:25;;;;;;;5.63;5.13;;;;;;;;;;5040637;28;20783;-72
2021/12/06 11:13:11;;;;;;;7.30;6.10;;;;;;;;;;5005507;28;20929;-73
2021/12/06 11:15:50;;;;;;;6.50;6.00;;;;;;;;;;5023236;28;20424;-73
2021/12/06 11:18:28;;;;;;;6.00;5.70;;;;;;;;;;5006039;28;20439;-73
2021/12/06 11:20:54;;;;;;;7.30;6.60;;;;;;;;;;5007772;28;20471;-73
2021/12/06 11:23:20;;;;;;;6.10;5.70;;;;;;;;;;5005602;28;20416;-73
2021/12/06 11:26:01;;;;;;;5.47;5.07;;;;;;;;;;5007953;28;20481;-74
2021/12/06 11:28:29;;;;;;;5.70;5.10;;;;;;;;;;5007467;28;20436;-72
2021/12/06 11:31:02;;;;;;;4.93;4.60;;;;;;;;;;5008916;28;20422;-72
2021/12/06 11:33:30;;;;;;;5.40;5.00;;;;;;;;;;4998151;28;20525;-73
2021/12/06 11:35:56;;;;;;;5.10;4.80;;;;;;;;;;5007016;28;20432;-73
2021/12/06 11:38:22;;;;;;;5.27;4.90;;;;;;;;;;4997257;28;20515;-73
2021/12/06 11:40:48;;;;;;;5.07;4.60;;;;;;;;;;5006012;28;20802;-73
2021/12/06 11:43:17;;;;;;;4.60;4.40;;;;;;;;;;5004342;28;20523;-72
2021/12/06 11:45:52;;;;;;;6.17;5.83;;;;;;;;;;5007222;28;20499;-73
2021/12/06 11:48:26;;;;;;;6.37;5.87;;;;;;;;;;5006430;28;20490;-72
2021/12/06 11:50:54;;;;;;;4.90;4.63;;;;;;;;;;5008341;28;20542;-73
2021/12/06 11:53:23;;;;;;;5.30;5.10;;;;;;;;;;5004154;28;20486;-73
2021/12/06 11:55:50;;;;;;;9.83;4.93;;;;;;;;;;5006897;28;20814;-72
2021/12/06 11:58:23;;;;;;;5.20;4.90;;;;;;;;;;5006485;28;20424;-72
2021/12/06 12:01:02;;;;;;;5.73;5.30;;;;;;;;;;5007491;28;20494;-73
2021/12/06 12:03:32;;;;;;;7.20;6.60;;;;;;;;;;5005418;28;20478;-71
2021/12/06 12:05:59;;;;;;;6.03;5.53;;;;;;;;;;5008936;28;20490;-73
2021/12/06 12:08:25;;;;;;;9.03;8.13;;;;;;;;;;5006338;28;20438;-73
2021/12/06 12:10:55;;;;;;;7.23;5.87;;;;;;;;;;5039466;28;20796;-73
2021/12/06 12:13:35;;;;;;;7.40;4.80;;;;;;;;;;5003783;28;20428;-73
2021/12/06 12:16:21;;;;;;;5.40;5.10;;;;;;;;;;5008036;28;20432;-73
2021/12/06 12:18:48;;;;;;;5.73;5.17;;;;;;;;;;5038241;28;20854;-73
2021/12/06 12:21:14;;;;;;;5.40;5.00;;;;;;;;;;5005066;28;20436;-73
2021/12/06 12:23:42;;;;;;;4.53;4.23;;;;;;;;;;5008176;28;20428;-73
2021/12/06 12:26:12;;;;;;;5.90;5.50;;;;;;;;;;5005886;28;20491;-73
2021/12/06 12:28:50;;;;;;;4.90;4.70;;;;;;;;;;5008081;28;20424;-73
2021/12/06 12:31:17;;;;;;;5.40;5.10;;;;;;;;;;5001487;28;20448;-73
2021/12/06 12:33:43;;;;;;;9.70;8.00;;;;;;;;;;5005621;28;20428;-73
2021/12/06 12:36:11;;;;;;;7.07;5.83;;;;;;;;;;5036447;28;20431;-73
2021/12/06 12:38:38;;;;;;;6.87;6.17;;;;;;;;;;5008439;28;20862;-73
2021/12/06 12:41:28;;;;;;;5.70;5.33;;;;;;;;;;5003761;28;20474;-72
2021/12/06 12:44:00;;;;;;;7.60;7.10;;;;;;;;;;5007153;28;20427;-73
2021/12/06 12:46:33;;;;;;;6.67;6.17;;;;;;;;;;5004087;28;20324;-73
2021/12/06 12:49:00;;;;;;;7.17;6.67;;;;;;;;;;5008549;28;20531;-73
2021/12/06 12:51:36;;;;;;;6.20;5.80;;;;;;;;;;5003370;28;20527;-74
2021/12/06 12:54:23;;;;;;;13.13;10.03;;;;;;;;;;5037517;28;20435;-73
2021/12/06 12:56:52;;;;;;;14.37;7.40;;;;;;;;;;5005204;28;20412;-73
2021/12/06 12:59:21;;;;;;;16.70;11.97;;;;;;;;;;5012059;28;20695;-73
2021/12/06 13:02:06;;;;;;;7.57;6.87;;;;;;;;;;5009460;28;20931;-73
2021/12/06 13:04:52;;;;;;;55.23;29.93;;;;;;;;;;5043672;28;20836;-73
2021/12/06 13:07:18;;;;;;;17.43;8.80;;;;;;;;;;5041679;28;20863;-73
2021/12/06 13:09:44;;;;;;;9.80;8.80;;;;;;;;;;5012015;28;20424;-73
2021/12/06 13:12:11;;;;;;;7.90;7.30;;;;;;;;;;5008995;28;20451;-73
2021/12/06 13:14:45;;;;;;;7.63;6.90;;;;;;;;;;5011904;28;20815;-72
2021/12/06 13:17:21;;;;;;;8.63;7.83;;;;;;;;;;5009658;28;20622;-73
2021/12/06 13:20:07;;;;;;;6.70;6.07;;;;;;;;;;5011458;28;20943;-73
2021/12/06 13:22:44;;;;;;;11.30;7.13;;;;;;;;;;5009524;28;20404;-73
2021/12/06 13:25:11;;;;;;;6.67;6.07;;;;;;;;;;5009370;28;20898;-73
2021/12/06 13:27:40;;;;;;;5.90;5.40;;;;;;;;;;5011090;28;20475;-73
2021/12/06 13:30:21;;;;;;;5.57;5.07;;;;;;;;;;5010246;28;20427;-73
2021/12/06 13:32:50;;;;;;;7.23;6.07;;;;;;;;;;5010870;28;20943;-73
2021/12/06 13:35:22;;;;;;;8.57;6.37;;;;;;;;;;5009283;28;21455;-73
2021/12/06 13:38:00;;;;;;;7.40;6.77;;;;;;;;;;5011353;28;20447;-73
2021/12/06 13:40:26;;;;;;;11.13;5.93;;;;;;;;;;5009371;28;20426;-73
2021/12/06 13:42:52;;;;;;;4.97;4.67;;;;;;;;;;5011206;28;20424;-73
2021/12/06 13:45:23;;;;;;;7.90;5.83;;;;;;;;;;5040636;28;20471;-73
2021/12/06 13:48:07;;;;;;;4.43;4.07;;;;;;;;;;5010222;28;20502;-73
2021/12/06 13:50:33;;;;;;;7.50;6.00;;;;;;;;;;5008436;28;20428;-73
2021/12/06 13:53:00;;;;;;;5.60;5.10;;;;;;;;;;5010933;28;20503;-73
2021/12/06 13:55:28;;;;;;;9.70;4.63;;;;;;;;;;5008726;28;20439;-73
2021/12/06 13:58:05;;;;;;;5.00;4.70;;;;;;;;;;5011379;28;20431;-73
2021/12/06 14:00:42;;;;;;;6.67;5.97;;;;;;;;;;5006868;28;20450;-73
2021/12/06 14:03:12;;;;;;;6.90;6.33;;;;;;;;;;5010764;28;20486;-73
2021/12/06 14:05:40;;;;;;;6.53;6.13;;;;;;;;;;5008512;28;20503;-73
2021/12/06 14:08:06;;;;;;;5.23;4.93;;;;;;;;;;5010868;28;20431;-73
2021/12/06 14:10:36;;;;;;;6.10;4.77;;;;;;;;;;5008770;28;20940;-73
2021/12/06 14:13:09;;;;;;;6.40;5.73;;;;;;;;;;5010439;28;20424;-73
2021/12/06 14:15:46;;;;;;;4.80;4.37;;;;;;;;;;5007537;28;20459;-73
2021/12/06 14:18:14;;;;;;;5.00;4.70;;;;;;;;;;5011224;28;20408;-73
2021/12/06 14:20:45;;;;;;;13.17;9.30;;;;;;;;;;5009115;28;20515;-73
2021/12/06 14:23:12;;;;;;;6.53;6.03;;;;;;;;;;5009779;28;20940;-73
2021/12/06 14:25:48;;;;;;;5.10;4.80;;;;;;;;;;5008246;28;21048;-73
2021/12/06 14:28:14;;;;;;;7.10;5.40;;;;;;;;;;5010438;28;20428;-73
2021/12/06 14:30:41;;;;;;;5.40;5.00;;;;;;;;;;5007969;28;20435;-73
2021/12/06 14:33:07;;;;;;;6.47;6.07;;;;;;;;;;5009977;28;20463;-73
2021/12/06 14:35:34;;;;;;;6.20;5.73;;;;;;;;;;5008187;28;20435;-73
2021/12/06 14:38:00;;;;;;;6.97;6.47;;;;;;;;;;5010535;28;20431;-73
2021/12/06 14:40:26;;;;;;;5.27;4.83;;;;;;;;;;5008358;28;20463;-73
2021/12/06 14:42:52;;;;;;;10.77;5.00;;;;;;;;;;5041884;28;20424;-73
2021/12/06 14:45:19;;;;;;;5.07;4.77;;;;;;;;;;5003476;28;20472;-73
2021/12/06 14:47:48;;;;;;;7.00;4.67;;;;;;;;;;5007420;28;20440;-73
2021/12/06 14:50:20;;;;;;;4.73;4.33;;;;;;;;;;5006175;28;20424;-73
2021/12/06 14:52:48;;;;;;;5.50;5.00;;;;;;;;;;5006938;28;20801;-74
2021/12/06 14:57:49;;;;;;;5.20;4.70;;;;;;;;;;5000371;28;20485;-73
2021/12/06 15:00:18;;;;;;;4.87;4.60;;;;;;;;;;5004501;28;20461;-73
2021/12/06 15:02:54;;;;;;;5.00;4.80;;;;;;;;;;5008319;28;20440;-73
2021/12/06 15:05:28;;;;;;;3.53;3.30;;;;;;;;;;5005392;28;20479;-73
2021/12/06 15:07:56;;;;;;;8.10;3.50;;;;;;;;;;5008426;28;20473;-73